sensor_id;sensor_type;location;lat;lon;timestamp;P1;durP1;ratioP1;P2;durP2;ratioP2
23743;SDS011;12052;53.478;10.182;2023-04-03T00:00:22;8.32;;;1.85;;
23743;SDS011;12052;53.478;10.182;2023-04-03T00:02:48;8.85;;;1.70;;
23743;SDS011;12052;53.478;10.182;2023-04-03T00:05:14;11.30;;;2.30;;
23743;SDS011;12052;53.478;10.182;2023-04-03T00:07:40;2.65;;;1.73;;
23743;SDS011;12052;53.478;10.182;2023-04-03T00:10:06;12.95;;;2.13;;
23743;SDS011;12052;53.478;10.182;2023-04-03T00:12:32;5.97;;;1.85;;
23743;SDS011;12052;53.478;10.182;2023-04-03T00:14:57;8.13;;;2.17;;
23743;SDS011;12052;53.478;10.182;2023-04-03T00:17:23;7.47;;;2.28;;
23743;SDS011;12052;53.478;10.182;2023-04-03T00:19:48;6.13;;;1.67;;
23743;SDS011;12052;53.478;10.182;2023-04-03T00:22:14;9.82;;;1.92;;
23743;SDS011;12052;53.478;10.182;2023-04-03T00:24:40;9.68;;;2.10;;
23743;SDS011;12052;53.478;10.182;2023-04-03T00:27:05;12.52;;;2.15;;
23743;SDS011;12052;53.478;10.182;2023-04-03T00:29:31;10.60;;;1.80;;
23743;SDS011;12052;53.478;10.182;2023-04-03T00:31:56;5.18;;;1.58;;
23743;SDS011;12052;53.478;10.182;2023-04-03T00:34:22;5.85;;;2.00;;
23743;SDS011;12052;53.478;10.182;2023-04-03T00:36:47;5.53;;;1.85;;
23743;SDS011;12052;53.478;10.182;2023-04-03T00:39:13;6.35;;;1.55;;
23743;SDS011;12052;53.478;10.182;2023-04-03T00:41:39;11.02;;;1.50;;
23743;SDS011;12052;53.478;10.182;2023-04-03T00:46:58;6.03;;;2.25;;
23743;SDS011;12052;53.478;10.182;2023-04-03T00:49:25;4.93;;;1.90;;
23743;SDS011;12052;53.478;10.182;2023-04-03T00:51:52;6.85;;;2.60;;
23743;SDS011;12052;53.478;10.182;2023-04-03T00:54:18;7.32;;;2.05;;
23743;SDS011;12052;53.478;10.182;2023-04-03T00:56:44;3.90;;;1.30;;
23743;SDS011;12052;53.478;10.182;2023-04-03T00:59:12;8.50;;;1.77;;
23743;SDS011;12052;53.478;10.182;2023-04-03T01:01:41;13.57;;;2.42;;
23743;SDS011;12052;53.478;10.182;2023-04-03T01:06:54;4.57;;;1.67;;
23743;SDS011;12052;53.478;10.182;2023-04-03T01:09:23;4.32;;;1.77;;
23743;SDS011;12052;53.478;10.182;2023-04-03T01:11:49;7.57;;;1.75;;
23743;SDS011;12052;53.478;10.182;2023-04-03T01:14:14;5.07;;;1.60;;
23743;SDS011;12052;53.478;10.182;2023-04-03T01:16:40;5.97;;;1.60;;
23743;SDS011;12052;53.478;10.182;2023-04-03T01:19:06;8.63;;;1.80;;
23743;SDS011;12052;53.478;10.182;2023-04-03T01:24:34;5.13;;;1.95;;
23743;SDS011;12052;53.478;10.182;2023-04-03T01:27:04;5.95;;;2.03;;
23743;SDS011;12052;53.478;10.182;2023-04-03T01:29:32;4.35;;;1.60;;
23743;SDS011;12052;53.478;10.182;2023-04-03T01:31:58;7.88;;;1.55;;
23743;SDS011;12052;53.478;10.182;2023-04-03T01:34:26;6.90;;;1.85;;
23743;SDS011;12052;53.478;10.182;2023-04-03T01:36:53;6.40;;;1.42;;
23743;SDS011;12052;53.478;10.182;2023-04-03T01:39:18;5.15;;;1.52;;
23743;SDS011;12052;53.478;10.182;2023-04-03T01:41:45;4.07;;;1.48;;
23743;SDS011;12052;53.478;10.182;2023-04-03T01:44:11;8.20;;;1.80;;
23743;SDS011;12052;53.478;10.182;2023-04-03T01:46:37;10.38;;;1.83;;
23743;SDS011;12052;53.478;10.182;2023-04-03T01:49:03;6.75;;;1.85;;
23743;SDS011;12052;53.478;10.182;2023-04-03T01:51:29;5.43;;;1.90;;
23743;SDS011;12052;53.478;10.182;2023-04-03T01:53:55;10.98;;;1.95;;
23743;SDS011;12052;53.478;10.182;2023-04-03T01:56:21;6.38;;;1.90;;
23743;SDS011;12052;53.478;10.182;2023-04-03T01:58:47;7.40;;;1.67;;
23743;SDS011;12052;53.478;10.182;2023-04-03T02:01:12;8.52;;;1.77;;
23743;SDS011;12052;53.478;10.182;2023-04-03T02:03:38;9.93;;;2.40;;
23743;SDS011;12052;53.478;10.182;2023-04-03T02:06:03;2.72;;;1.45;;
23743;SDS011;12052;53.478;10.182;2023-04-03T02:08:30;5.15;;;1.98;;
23743;SDS011;12052;53.478;10.182;2023-04-03T02:10:55;3.20;;;1.50;;
23743;SDS011;12052;53.478;10.182;2023-04-03T02:13:21;7.45;;;2.47;;
23743;SDS011;12052;53.478;10.182;2023-04-03T02:15:47;9.40;;;1.88;;
23743;SDS011;12052;53.478;10.182;2023-04-03T02:18:13;3.83;;;1.55;;
23743;SDS011;12052;53.478;10.182;2023-04-03T02:20:39;6.25;;;1.70;;
23743;SDS011;12052;53.478;10.182;2023-04-03T02:23:05;4.35;;;1.52;;
23743;SDS011;12052;53.478;10.182;2023-04-03T02:25:31;7.82;;;2.15;;
23743;SDS011;12052;53.478;10.182;2023-04-03T02:27:57;5.95;;;1.80;;
23743;SDS011;12052;53.478;10.182;2023-04-03T02:30:23;5.10;;;1.77;;
23743;SDS011;12052;53.478;10.182;2023-04-03T02:32:48;9.65;;;1.75;;
23743;SDS011;12052;53.478;10.182;2023-04-03T02:35:14;10.48;;;2.47;;
23743;SDS011;12052;53.478;10.182;2023-04-03T02:37:40;5.40;;;2.13;;
23743;SDS011;12052;53.478;10.182;2023-04-03T02:40:06;3.83;;;1.83;;
23743;SDS011;12052;53.478;10.182;2023-04-03T02:42:32;5.72;;;1.77;;
23743;SDS011;12052;53.478;10.182;2023-04-03T02:44:58;4.97;;;1.73;;
23743;SDS011;12052;53.478;10.182;2023-04-03T02:47:25;6.40;;;1.98;;
23743;SDS011;12052;53.478;10.182;2023-04-03T02:49:54;11.18;;;2.65;;
23743;SDS011;12052;53.478;10.182;2023-04-03T02:52:20;4.97;;;1.75;;
23743;SDS011;12052;53.478;10.182;2023-04-03T02:54:46;3.38;;;1.60;;
23743;SDS011;12052;53.478;10.182;2023-04-03T02:57:11;6.72;;;1.95;;
23743;SDS011;12052;53.478;10.182;2023-04-03T02:59:37;10.05;;;2.22;;
23743;SDS011;12052;53.478;10.182;2023-04-03T03:02:05;3.65;;;1.42;;
23743;SDS011;12052;53.478;10.182;2023-04-03T03:04:34;12.95;;;1.95;;
23743;SDS011;12052;53.478;10.182;2023-04-03T03:07:00;7.03;;;1.60;;
23743;SDS011;12052;53.478;10.182;2023-04-03T03:09:26;4.03;;;2.17;;
23743;SDS011;12052;53.478;10.182;2023-04-03T03:11:52;4.15;;;1.65;;
23743;SDS011;12052;53.478;10.182;2023-04-03T03:14:17;5.57;;;1.60;;
23743;SDS011;12052;53.478;10.182;2023-04-03T03:16:43;6.07;;;1.60;;
23743;SDS011;12052;53.478;10.182;2023-04-03T03:19:09;5.30;;;1.67;;
23743;SDS011;12052;53.478;10.182;2023-04-03T03:21:35;6.93;;;1.80;;
23743;SDS011;12052;53.478;10.182;2023-04-03T03:24:01;7.00;;;4.38;;
23743;SDS011;12052;53.478;10.182;2023-04-03T03:26:27;6.75;;;1.98;;
23743;SDS011;12052;53.478;10.182;2023-04-03T03:28:53;5.07;;;1.70;;
23743;SDS011;12052;53.478;10.182;2023-04-03T03:31:18;4.50;;;1.67;;
23743;SDS011;12052;53.478;10.182;2023-04-03T03:33:44;4.65;;;1.63;;
23743;SDS011;12052;53.478;10.182;2023-04-03T03:36:10;5.43;;;1.58;;
23743;SDS011;12052;53.478;10.182;2023-04-03T03:38:35;11.02;;;2.58;;
23743;SDS011;12052;53.478;10.182;2023-04-03T03:41:01;5.50;;;1.90;;
23743;SDS011;12052;53.478;10.182;2023-04-03T03:43:27;2.28;;;1.40;;
23743;SDS011;12052;53.478;10.182;2023-04-03T03:45:53;6.60;;;1.45;;
23743;SDS011;12052;53.478;10.182;2023-04-03T03:48:19;3.13;;;1.63;;
23743;SDS011;12052;53.478;10.182;2023-04-03T03:50:46;6.45;;;1.80;;
23743;SDS011;12052;53.478;10.182;2023-04-03T03:53:12;6.65;;;1.90;;
23743;SDS011;12052;53.478;10.182;2023-04-03T03:55:37;5.05;;;1.40;;
23743;SDS011;12052;53.478;10.182;2023-04-03T03:58:03;5.50;;;1.95;;
23743;SDS011;12052;53.478;10.182;2023-04-03T04:00:28;7.13;;;1.70;;
23743;SDS011;12052;53.478;10.182;2023-04-03T04:02:55;10.73;;;2.25;;
23743;SDS011;12052;53.478;10.182;2023-04-03T04:05:21;5.22;;;1.70;;
23743;SDS011;12052;53.478;10.182;2023-04-03T04:07:46;5.80;;;2.08;;
23743;SDS011;12052;53.478;10.182;2023-04-03T04:10:12;8.18;;;2.08;;
23743;SDS011;12052;53.478;10.182;2023-04-03T04:12:38;9.05;;;1.85;;
23743;SDS011;12052;53.478;10.182;2023-04-03T04:15:04;7.70;;;2.00;;
23743;SDS011;12052;53.478;10.182;2023-04-03T04:17:30;5.95;;;1.95;;
23743;SDS011;12052;53.478;10.182;2023-04-03T04:19:56;6.63;;;1.88;;
23743;SDS011;12052;53.478;10.182;2023-04-03T04:22:21;2.97;;;1.80;;
23743;SDS011;12052;53.478;10.182;2023-04-03T04:24:47;5.80;;;1.77;;
23743;SDS011;12052;53.478;10.182;2023-04-03T04:27:12;5.15;;;1.88;;
23743;SDS011;12052;53.478;10.182;2023-04-03T04:29:38;8.48;;;2.33;;
23743;SDS011;12052;53.478;10.182;2023-04-03T04:32:04;5.32;;;1.63;;
23743;SDS011;12052;53.478;10.182;2023-04-03T04:34:29;4.43;;;1.52;;
23743;SDS011;12052;53.478;10.182;2023-04-03T04:36:55;5.55;;;1.77;;
23743;SDS011;12052;53.478;10.182;2023-04-03T04:39:20;3.38;;;1.50;;
23743;SDS011;12052;53.478;10.182;2023-04-03T04:41:46;3.47;;;1.70;;
23743;SDS011;12052;53.478;10.182;2023-04-03T04:44:12;7.93;;;1.88;;
23743;SDS011;12052;53.478;10.182;2023-04-03T04:46:37;5.75;;;1.60;;
23743;SDS011;12052;53.478;10.182;2023-04-03T04:49:03;7.97;;;1.98;;
23743;SDS011;12052;53.478;10.182;2023-04-03T04:51:28;7.20;;;1.88;;
23743;SDS011;12052;53.478;10.182;2023-04-03T04:53:54;5.95;;;2.15;;
23743;SDS011;12052;53.478;10.182;2023-04-03T04:56:19;5.10;;;1.95;;
23743;SDS011;12052;53.478;10.182;2023-04-03T04:58:45;5.35;;;2.10;;
23743;SDS011;12052;53.478;10.182;2023-04-03T05:01:11;7.45;;;1.80;;
23743;SDS011;12052;53.478;10.182;2023-04-03T05:03:37;4.70;;;1.77;;
23743;SDS011;12052;53.478;10.182;2023-04-03T05:06:02;4.10;;;1.45;;
23743;SDS011;12052;53.478;10.182;2023-04-03T05:08:28;4.47;;;1.83;;
23743;SDS011;12052;53.478;10.182;2023-04-03T05:10:54;4.43;;;1.65;;
23743;SDS011;12052;53.478;10.182;2023-04-03T05:13:19;2.90;;;1.25;;
23743;SDS011;12052;53.478;10.182;2023-04-03T05:15:45;7.18;;;1.38;;
23743;SDS011;12052;53.478;10.182;2023-04-03T05:18:12;11.18;;;2.38;;
23743;SDS011;12052;53.478;10.182;2023-04-03T05:20:37;5.43;;;1.63;;
23743;SDS011;12052;53.478;10.182;2023-04-03T05:23:03;16.35;;;2.00;;
23743;SDS011;12052;53.478;10.182;2023-04-03T05:25:29;6.80;;;2.35;;
23743;SDS011;12052;53.478;10.182;2023-04-03T05:27:55;8.43;;;2.88;;
23743;SDS011;12052;53.478;10.182;2023-04-03T05:30:21;6.15;;;3.75;;
23743;SDS011;12052;53.478;10.182;2023-04-03T05:32:46;6.20;;;3.40;;
23743;SDS011;12052;53.478;10.182;2023-04-03T05:35:12;3.53;;;2.30;;
23743;SDS011;12052;53.478;10.182;2023-04-03T05:37:38;9.32;;;2.40;;
23743;SDS011;12052;53.478;10.182;2023-04-03T05:40:05;2.55;;;1.80;;
23743;SDS011;12052;53.478;10.182;2023-04-03T05:42:31;6.10;;;2.42;;
23743;SDS011;12052;53.478;10.182;2023-04-03T05:44:56;4.03;;;2.08;;
23743;SDS011;12052;53.478;10.182;2023-04-03T05:47:22;14.80;;;2.60;;
23743;SDS011;12052;53.478;10.182;2023-04-03T05:49:48;10.68;;;2.20;;
23743;SDS011;12052;53.478;10.182;2023-04-03T05:52:18;5.35;;;2.90;;
23743;SDS011;12052;53.478;10.182;2023-04-03T05:54:45;6.22;;;2.92;;
23743;SDS011;12052;53.478;10.182;2023-04-03T05:57:13;3.40;;;1.75;;
23743;SDS011;12052;53.478;10.182;2023-04-03T05:59:39;5.25;;;2.15;;
23743;SDS011;12052;53.478;10.182;2023-04-03T06:02:04;9.60;;;2.50;;
23743;SDS011;12052;53.478;10.182;2023-04-03T06:04:31;8.85;;;2.10;;
23743;SDS011;12052;53.478;10.182;2023-04-03T06:06:56;8.15;;;2.25;;
23743;SDS011;12052;53.478;10.182;2023-04-03T06:09:24;10.60;;;2.25;;
23743;SDS011;12052;53.478;10.182;2023-04-03T06:11:51;7.38;;;2.67;;
23743;SDS011;12052;53.478;10.182;2023-04-03T06:14:18;6.70;;;2.33;;
23743;SDS011;12052;53.478;10.182;2023-04-03T06:16:44;10.30;;;2.50;;
23743;SDS011;12052;53.478;10.182;2023-04-03T06:19:10;6.32;;;2.45;;
23743;SDS011;12052;53.478;10.182;2023-04-03T06:21:37;13.05;;;2.67;;
23743;SDS011;12052;53.478;10.182;2023-04-03T06:24:03;6.68;;;2.40;;
23743;SDS011;12052;53.478;10.182;2023-04-03T06:26:29;6.68;;;2.63;;
23743;SDS011;12052;53.478;10.182;2023-04-03T06:28:55;7.43;;;2.03;;
23743;SDS011;12052;53.478;10.182;2023-04-03T06:31:21;8.80;;;2.35;;
23743;SDS011;12052;53.478;10.182;2023-04-03T06:33:46;8.02;;;2.60;;
23743;SDS011;12052;53.478;10.182;2023-04-03T06:36:12;9.65;;;2.65;;
23743;SDS011;12052;53.478;10.182;2023-04-03T06:38:38;6.00;;;1.80;;
23743;SDS011;12052;53.478;10.182;2023-04-03T06:41:04;5.13;;;1.95;;
23743;SDS011;12052;53.478;10.182;2023-04-03T06:43:29;3.75;;;2.10;;
23743;SDS011;12052;53.478;10.182;2023-04-03T06:45:58;11.27;;;2.13;;
23743;SDS011;12052;53.478;10.182;2023-04-03T06:48:23;4.30;;;1.50;;
23743;SDS011;12052;53.478;10.182;2023-04-03T06:50:49;6.28;;;1.25;;
23743;SDS011;12052;53.478;10.182;2023-04-03T06:53:15;4.10;;;1.73;;
23743;SDS011;12052;53.478;10.182;2023-04-03T06:55:41;11.23;;;1.60;;
23743;SDS011;12052;53.478;10.182;2023-04-03T06:58:07;4.88;;;1.38;;
23743;SDS011;12052;53.478;10.182;2023-04-03T07:00:33;4.38;;;1.45;;
23743;SDS011;12052;53.478;10.182;2023-04-03T07:02:59;3.55;;;1.65;;
23743;SDS011;12052;53.478;10.182;2023-04-03T07:05:24;5.18;;;1.40;;
23743;SDS011;12052;53.478;10.182;2023-04-03T07:07:51;4.88;;;1.38;;
23743;SDS011;12052;53.478;10.182;2023-04-03T07:10:17;4.53;;;1.35;;
23743;SDS011;12052;53.478;10.182;2023-04-03T07:12:43;5.70;;;1.60;;
23743;SDS011;12052;53.478;10.182;2023-04-03T07:15:09;5.20;;;1.38;;
23743;SDS011;12052;53.478;10.182;2023-04-03T07:17:35;5.80;;;1.15;;
23743;SDS011;12052;53.478;10.182;2023-04-03T07:20:02;4.78;;;1.65;;
23743;SDS011;12052;53.478;10.182;2023-04-03T07:22:28;4.15;;;1.02;;
23743;SDS011;12052;53.478;10.182;2023-04-03T07:24:54;5.22;;;1.45;;
23743;SDS011;12052;53.478;10.182;2023-04-03T07:27:20;9.38;;;1.60;;
23743;SDS011;12052;53.478;10.182;2023-04-03T07:29:46;2.92;;;1.23;;
23743;SDS011;12052;53.478;10.182;2023-04-03T07:32:13;3.42;;;1.40;;
23743;SDS011;12052;53.478;10.182;2023-04-03T07:34:40;5.85;;;1.55;;
23743;SDS011;12052;53.478;10.182;2023-04-03T07:37:06;3.92;;;1.00;;
23743;SDS011;12052;53.478;10.182;2023-04-03T07:39:33;6.65;;;1.60;;
23743;SDS011;12052;53.478;10.182;2023-04-03T07:41:59;4.15;;;1.33;;
23743;SDS011;12052;53.478;10.182;2023-04-03T07:44:25;4.68;;;1.20;;
23743;SDS011;12052;53.478;10.182;2023-04-03T07:46:51;2.83;;;0.90;;
23743;SDS011;12052;53.478;10.182;2023-04-03T07:49:17;6.43;;;1.63;;
23743;SDS011;12052;53.478;10.182;2023-04-03T07:51:48;4.82;;;1.10;;
23743;SDS011;12052;53.478;10.182;2023-04-03T07:54:13;6.05;;;1.30;;
23743;SDS011;12052;53.478;10.182;2023-04-03T07:56:40;3.92;;;1.10;;
23743;SDS011;12052;53.478;10.182;2023-04-03T07:59:07;3.05;;;1.20;;
23743;SDS011;12052;53.478;10.182;2023-04-03T08:01:33;3.83;;;1.10;;
23743;SDS011;12052;53.478;10.182;2023-04-03T08:03:59;4.07;;;1.10;;
23743;SDS011;12052;53.478;10.182;2023-04-03T08:06:25;2.80;;;0.93;;
23743;SDS011;12052;53.478;10.182;2023-04-03T08:08:51;5.78;;;0.95;;
23743;SDS011;12052;53.478;10.182;2023-04-03T08:11:17;4.10;;;1.08;;
23743;SDS011;12052;53.478;10.182;2023-04-03T08:13:43;2.03;;;0.75;;
23743;SDS011;12052;53.478;10.182;2023-04-03T08:16:13;3.72;;;1.02;;
23743;SDS011;12052;53.478;10.182;2023-04-03T08:18:42;2.00;;;0.80;;
23743;SDS011;12052;53.478;10.182;2023-04-03T08:21:09;2.63;;;0.73;;
23743;SDS011;12052;53.478;10.182;2023-04-03T08:23:35;5.95;;;0.90;;
23743;SDS011;12052;53.478;10.182;2023-04-03T08:26:05;4.30;;;1.00;;
23743;SDS011;12052;53.478;10.182;2023-04-03T08:28:38;10.05;;;1.20;;
23743;SDS011;12052;53.478;10.182;2023-04-03T08:31:05;3.45;;;1.08;;
23743;SDS011;12052;53.478;10.182;2023-04-03T08:33:32;5.70;;;1.00;;
23743;SDS011;12052;53.478;10.182;2023-04-03T08:36:00;2.42;;;0.70;;
23743;SDS011;12052;53.478;10.182;2023-04-03T08:38:26;3.85;;;0.90;;
23743;SDS011;12052;53.478;10.182;2023-04-03T08:41:02;4.72;;;0.90;;
23743;SDS011;12052;53.478;10.182;2023-04-03T08:46:22;3.90;;;0.70;;
23743;SDS011;12052;53.478;10.182;2023-04-03T08:48:56;6.70;;;0.80;;
23743;SDS011;12052;53.478;10.182;2023-04-03T08:51:23;1.65;;;0.68;;
23743;SDS011;12052;53.478;10.182;2023-04-03T08:56:30;1.08;;;0.60;;
23743;SDS011;12052;53.478;10.182;2023-04-03T08:58:59;1.17;;;0.50;;
23743;SDS011;12052;53.478;10.182;2023-04-03T09:01:35;3.75;;;0.70;;
23743;SDS011;12052;53.478;10.182;2023-04-03T09:04:05;3.40;;;0.90;;
23743;SDS011;12052;53.478;10.182;2023-04-03T09:06:36;3.58;;;0.77;;
23743;SDS011;12052;53.478;10.182;2023-04-03T09:14:17;1.90;;;0.88;;
23743;SDS011;12052;53.478;10.182;2023-04-03T09:16:55;2.13;;;0.70;;
23743;SDS011;12052;53.478;10.182;2023-04-03T09:21:49;2.20;;;0.50;;
23743;SDS011;12052;53.478;10.182;2023-04-03T09:24:15;2.38;;;0.80;;
23743;SDS011;12052;53.478;10.182;2023-04-03T09:26:48;3.28;;;0.57;;
23743;SDS011;12052;53.478;10.182;2023-04-03T09:29:23;3.83;;;0.60;;
23743;SDS011;12052;53.478;10.182;2023-04-03T09:31:50;1.23;;;0.60;;
23743;SDS011;12052;53.478;10.182;2023-04-03T09:34:25;3.10;;;0.80;;
23743;SDS011;12052;53.478;10.182;2023-04-03T09:36:54;1.65;;;0.65;;
23743;SDS011;12052;53.478;10.182;2023-04-03T09:39:22;3.80;;;0.73;;
23743;SDS011;12052;53.478;10.182;2023-04-03T09:42:02;2.08;;;0.70;;
23743;SDS011;12052;53.478;10.182;2023-04-03T09:44:56;0.85;;;0.60;;
23743;SDS011;12052;53.478;10.182;2023-04-03T09:47:29;3.13;;;0.60;;
23743;SDS011;12052;53.478;10.182;2023-04-03T09:50:17;1.90;;;0.70;;
23743;SDS011;12052;53.478;10.182;2023-04-03T09:52:46;4.90;;;0.90;;
23743;SDS011;12052;53.478;10.182;2023-04-03T09:55:17;2.22;;;0.82;;
23743;SDS011;12052;53.478;10.182;2023-04-03T09:57:52;3.20;;;0.75;;
23743;SDS011;12052;53.478;10.182;2023-04-03T10:00:23;2.58;;;0.60;;
23743;SDS011;12052;53.478;10.182;2023-04-03T10:02:57;7.43;;;0.90;;
23743;SDS011;12052;53.478;10.182;2023-04-03T10:11:07;3.03;;;0.60;;
23743;SDS011;12052;53.478;10.182;2023-04-03T10:13:50;4.55;;;0.85;;
23743;SDS011;12052;53.478;10.182;2023-04-03T10:21:57;3.20;;;0.90;;
23743;SDS011;12052;53.478;10.182;2023-04-03T10:24:47;2.08;;;0.60;;
23743;SDS011;12052;53.478;10.182;2023-04-03T10:27:35;1.33;;;0.82;;
23743;SDS011;12052;53.478;10.182;2023-04-03T10:30:34;2.80;;;0.80;;
23743;SDS011;12052;53.478;10.182;2023-04-03T10:33:52;4.38;;;1.10;;
23743;SDS011;12052;53.478;10.182;2023-04-03T10:36:28;1.80;;;0.70;;
23743;SDS011;12052;53.478;10.182;2023-04-03T10:44:29;3.78;;;1.05;;
23743;SDS011;12052;53.478;10.182;2023-04-03T10:47:12;1.92;;;0.82;;
23743;SDS011;12052;53.478;10.182;2023-04-03T10:50:13;3.78;;;1.30;;
23743;SDS011;12052;53.478;10.182;2023-04-03T11:01:11;5.75;;;1.27;;
23743;SDS011;12052;53.478;10.182;2023-04-03T11:03:45;2.67;;;0.80;;
23743;SDS011;12052;53.478;10.182;2023-04-03T11:06:15;3.85;;;1.13;;
23743;SDS011;12052;53.478;10.182;2023-04-03T11:11:33;3.38;;;0.88;;
23743;SDS011;12052;53.478;10.182;2023-04-03T11:19:45;1.35;;;0.77;;
23743;SDS011;12052;53.478;10.182;2023-04-03T11:25:06;3.97;;;0.82;;
23743;SDS011;12052;53.478;10.182;2023-04-03T11:27:48;5.15;;;0.90;;
23743;SDS011;12052;53.478;10.182;2023-04-03T11:30:18;2.65;;;0.90;;
23743;SDS011;12052;53.478;10.182;2023-04-03T11:35:54;2.88;;;0.85;;
23743;SDS011;12052;53.478;10.182;2023-04-03T11:38:25;2.63;;;0.70;;
23743;SDS011;12052;53.478;10.182;2023-04-03T11:40:55;3.90;;;0.90;;
23743;SDS011;12052;53.478;10.182;2023-04-03T11:43:27;2.88;;;1.00;;
23743;SDS011;12052;53.478;10.182;2023-04-03T11:45:56;5.45;;;0.85;;
23743;SDS011;12052;53.478;10.182;2023-04-03T11:51:40;2.30;;;0.80;;
23743;SDS011;12052;53.478;10.182;2023-04-03T11:53:53;4.43;;;0.80;;
23743;SDS011;12052;53.478;10.182;2023-04-03T12:01:47;4.78;;;0.90;;
23743;SDS011;12052;53.478;10.182;2023-04-03T12:04:14;3.03;;;1.08;;
23743;SDS011;12052;53.478;10.182;2023-04-03T12:09:54;1.85;;;0.63;;
23743;SDS011;12052;53.478;10.182;2023-04-03T12:12:24;1.23;;;0.73;;
23743;SDS011;12052;53.478;10.182;2023-04-03T12:14:54;3.30;;;0.88;;
23743;SDS011;12052;53.478;10.182;2023-04-03T12:17:22;2.63;;;0.60;;
23743;SDS011;12052;53.478;10.182;2023-04-03T12:19:51;4.70;;;0.90;;
23743;SDS011;12052;53.478;10.182;2023-04-03T12:22:19;1.40;;;0.80;;
23743;SDS011;12052;53.478;10.182;2023-04-03T12:24:50;4.20;;;0.80;;
23743;SDS011;12052;53.478;10.182;2023-04-03T12:30:14;2.20;;;0.85;;
23743;SDS011;12052;53.478;10.182;2023-04-03T12:47:17;2.55;;;0.70;;
23743;SDS011;12052;53.478;10.182;2023-04-03T12:49:49;2.55;;;0.77;;
23743;SDS011;12052;53.478;10.182;2023-04-03T12:55:14;5.18;;;1.38;;
23743;SDS011;12052;53.478;10.182;2023-04-03T12:57:44;1.52;;;0.70;;
23743;SDS011;12052;53.478;10.182;2023-04-03T13:00:30;2.30;;;0.80;;
23743;SDS011;12052;53.478;10.182;2023-04-03T13:02:58;3.05;;;0.70;;
23743;SDS011;12052;53.478;10.182;2023-04-03T13:05:25;2.65;;;0.70;;
23743;SDS011;12052;53.478;10.182;2023-04-03T13:07:53;2.35;;;0.70;;
23743;SDS011;12052;53.478;10.182;2023-04-03T13:10:23;1.42;;;0.77;;
23743;SDS011;12052;53.478;10.182;2023-04-03T13:12:50;3.33;;;0.75;;
23743;SDS011;12052;53.478;10.182;2023-04-03T13:15:40;2.30;;;0.80;;
23743;SDS011;12052;53.478;10.182;2023-04-03T13:18:24;3.65;;;1.00;;
23743;SDS011;12052;53.478;10.182;2023-04-03T13:20:57;0.85;;;0.73;;
23743;SDS011;12052;53.478;10.182;2023-04-03T13:23:27;4.53;;;0.65;;
23743;SDS011;12052;53.478;10.182;2023-04-03T13:25:55;4.97;;;1.08;;
23743;SDS011;12052;53.478;10.182;2023-04-03T13:28:25;3.80;;;0.60;;
23743;SDS011;12052;53.478;10.182;2023-04-03T13:31:34;6.38;;;1.05;;
23743;SDS011;12052;53.478;10.182;2023-04-03T13:33:55;2.00;;;0.65;;
23743;SDS011;12052;53.478;10.182;2023-04-03T13:36:25;2.83;;;1.45;;
23743;SDS011;12052;53.478;10.182;2023-04-03T13:39:24;2.00;;;0.70;;
23743;SDS011;12052;53.478;10.182;2023-04-03T13:41:54;1.83;;;0.60;;
23743;SDS011;12052;53.478;10.182;2023-04-03T13:46:54;4.45;;;0.88;;
23743;SDS011;12052;53.478;10.182;2023-04-03T13:49:27;2.25;;;0.50;;
23743;SDS011;12052;53.478;10.182;2023-04-03T13:52:00;3.15;;;0.80;;
23743;SDS011;12052;53.478;10.182;2023-04-03T13:54:47;2.13;;;0.80;;
23743;SDS011;12052;53.478;10.182;2023-04-03T13:57:16;2.42;;;0.68;;
23743;SDS011;12052;53.478;10.182;2023-04-03T13:59:42;3.55;;;1.05;;
23743;SDS011;12052;53.478;10.182;2023-04-03T14:04:55;2.65;;;0.70;;
23743;SDS011;12052;53.478;10.182;2023-04-03T14:07:24;1.88;;;0.80;;
23743;SDS011;12052;53.478;10.182;2023-04-03T14:09:50;1.25;;;0.60;;
23743;SDS011;12052;53.478;10.182;2023-04-03T14:12:24;3.00;;;0.70;;
23743;SDS011;12052;53.478;10.182;2023-04-03T14:14:50;4.88;;;1.02;;
23743;SDS011;12052;53.478;10.182;2023-04-03T14:17:18;1.65;;;1.13;;
23743;SDS011;12052;53.478;10.182;2023-04-03T14:19:46;1.63;;;0.88;;
23743;SDS011;12052;53.478;10.182;2023-04-03T14:22:17;2.35;;;0.90;;
23743;SDS011;12052;53.478;10.182;2023-04-03T14:24:46;3.08;;;0.80;;
23743;SDS011;12052;53.478;10.182;2023-04-03T14:27:19;4.18;;;0.77;;
23743;SDS011;12052;53.478;10.182;2023-04-03T14:29:59;3.03;;;0.73;;
23743;SDS011;12052;53.478;10.182;2023-04-03T14:32:25;4.95;;;0.85;;
23743;SDS011;12052;53.478;10.182;2023-04-03T14:34:51;0.68;;;0.50;;
23743;SDS011;12052;53.478;10.182;2023-04-03T14:37:22;1.38;;;0.70;;
23743;SDS011;12052;53.478;10.182;2023-04-03T14:39:50;0.93;;;0.50;;
23743;SDS011;12052;53.478;10.182;2023-04-03T14:42:22;3.63;;;0.80;;
23743;SDS011;12052;53.478;10.182;2023-04-03T14:44:51;3.35;;;0.90;;
23743;SDS011;12052;53.478;10.182;2023-04-03T14:47:21;5.47;;;1.05;;
23743;SDS011;12052;53.478;10.182;2023-04-03T14:49:50;2.50;;;1.23;;
23743;SDS011;12052;53.478;10.182;2023-04-03T14:52:18;1.90;;;0.90;;
23743;SDS011;12052;53.478;10.182;2023-04-03T14:54:47;1.42;;;0.70;;
23743;SDS011;12052;53.478;10.182;2023-04-03T14:57:14;7.18;;;1.00;;
23743;SDS011;12052;53.478;10.182;2023-04-03T14:59:41;2.08;;;0.77;;
23743;SDS011;12052;53.478;10.182;2023-04-03T15:02:29;1.55;;;0.98;;
23743;SDS011;12052;53.478;10.182;2023-04-03T15:04:56;2.20;;;0.75;;
23743;SDS011;12052;53.478;10.182;2023-04-03T15:07:22;4.32;;;1.10;;
23743;SDS011;12052;53.478;10.182;2023-04-03T15:09:50;3.17;;;0.85;;
23743;SDS011;12052;53.478;10.182;2023-04-03T15:12:15;2.83;;;0.90;;
23743;SDS011;12052;53.478;10.182;2023-04-03T15:14:42;2.17;;;0.73;;
23743;SDS011;12052;53.478;10.182;2023-04-03T15:17:14;1.70;;;0.70;;
23743;SDS011;12052;53.478;10.182;2023-04-03T15:19:41;5.72;;;1.08;;
23743;SDS011;12052;53.478;10.182;2023-04-03T15:22:11;1.90;;;0.82;;
23743;SDS011;12052;53.478;10.182;2023-04-03T15:24:39;7.33;;;0.90;;
23743;SDS011;12052;53.478;10.182;2023-04-03T15:27:05;0.52;;;0.50;;
23743;SDS011;12052;53.478;10.182;2023-04-03T15:29:30;1.67;;;0.60;;
23743;SDS011;12052;53.478;10.182;2023-04-03T15:31:56;1.42;;;0.95;;
23743;SDS011;12052;53.478;10.182;2023-04-03T15:34:22;2.60;;;0.85;;
23743;SDS011;12052;53.478;10.182;2023-04-03T15:36:47;2.47;;;0.80;;
23743;SDS011;12052;53.478;10.182;2023-04-03T15:39:13;3.63;;;0.88;;
23743;SDS011;12052;53.478;10.182;2023-04-03T15:41:39;1.13;;;0.65;;
23743;SDS011;12052;53.478;10.182;2023-04-03T15:44:05;1.17;;;0.80;;
23743;SDS011;12052;53.478;10.182;2023-04-03T15:46:30;2.88;;;1.10;;
23743;SDS011;12052;53.478;10.182;2023-04-03T15:48:57;2.38;;;0.95;;
23743;SDS011;12052;53.478;10.182;2023-04-03T15:51:22;2.38;;;1.00;;
23743;SDS011;12052;53.478;10.182;2023-04-03T15:53:48;3.47;;;1.08;;
23743;SDS011;12052;53.478;10.182;2023-04-03T15:56:13;4.78;;;0.80;;
23743;SDS011;12052;53.478;10.182;2023-04-03T15:58:39;1.48;;;0.73;;
23743;SDS011;12052;53.478;10.182;2023-04-03T16:01:05;1.73;;;0.93;;
23743;SDS011;12052;53.478;10.182;2023-04-03T16:03:31;7.10;;;0.82;;
23743;SDS011;12052;53.478;10.182;2023-04-03T16:05:56;2.03;;;1.10;;
23743;SDS011;12052;53.478;10.182;2023-04-03T16:08:22;4.80;;;1.00;;
23743;SDS011;12052;53.478;10.182;2023-04-03T16:10:48;4.30;;;0.95;;
23743;SDS011;12052;53.478;10.182;2023-04-03T16:13:14;1.95;;;0.90;;
23743;SDS011;12052;53.478;10.182;2023-04-03T16:15:40;3.05;;;1.38;;
23743;SDS011;12052;53.478;10.182;2023-04-03T16:18:06;2.67;;;0.73;;